Terminal Aerodrome Forecast
Issued by NWS Huntsville, AL

Home | Current Version | Previous Version | Text Only | Print | Product List | Glossary On
Versions: 1 2 3 4 5 6 7 8 9 10 11 12 13 14 15 16 17 18 19 20 21 22 23 24 25 26 27 28 29 30 31 32 33 34 35 36 37 38
671
FTUS44 KHUN 242345
TAFHSV
TAF
KHSV 242345Z 2500/2524 11003KT P6SM SKC
     FM250300 17008KT P6SM SCT250
     FM251200 19010G18KT P6SM BKN040 BKN250
     FM251700 19010G18KT P6SM VCSH BKN015 OVC025
     FM252200 21008KT P6SM -RA BKN008 OVC015=

USA.gov is the U.S. government's official web portal to all federal, state and local government web resources and services.